sensor_id;sensor_type;location;lat;lon;timestamp;temperature;humidity
21047;DHT22;10682;50.874;3.656;2022-11-23T00:01:29;9.20;99.90
21047;DHT22;10682;50.874;3.656;2022-11-23T00:04:04;9.10;99.90
21047;DHT22;10682;50.874;3.656;2022-11-23T00:06:34;9.10;99.90
21047;DHT22;10682;50.874;3.656;2022-11-23T00:09:01;9.10;99.90
21047;DHT22;10682;50.874;3.656;2022-11-23T00:11:28;9.00;99.90
21047;DHT22;10682;50.874;3.656;2022-11-23T00:13:55;9.10;99.90
21047;DHT22;10682;50.874;3.656;2022-11-23T00:16:24;9.10;99.90
21047;DHT22;10682;50.874;3.656;2022-11-23T00:18:54;9.10;99.90
21047;DHT22;10682;50.874;3.656;2022-11-23T00:21:24;9.10;99.90
21047;DHT22;10682;50.874;3.656;2022-11-23T00:23:52;9.10;99.90
21047;DHT22;10682;50.874;3.656;2022-11-23T00:26:19;9.00;99.90
21047;DHT22;10682;50.874;3.656;2022-11-23T00:28:47;9.00;99.90
21047;DHT22;10682;50.874;3.656;2022-11-23T00:31:16;9.00;99.90
21047;DHT22;10682;50.874;3.656;2022-11-23T00:33:53;9.00;99.90
21047;DHT22;10682;50.874;3.656;2022-11-23T00:36:21;9.00;99.90
21047;DHT22;10682;50.874;3.656;2022-11-23T00:38:50;9.00;99.90
21047;DHT22;10682;50.874;3.656;2022-11-23T00:41:19;9.10;99.90
21047;DHT22;10682;50.874;3.656;2022-11-23T00:43:48;9.10;99.90
21047;DHT22;10682;50.874;3.656;2022-11-23T00:46:20;9.10;99.90
21047;DHT22;10682;50.874;3.656;2022-11-23T00:48:50;9.10;99.90
21047;DHT22;10682;50.874;3.656;2022-11-23T00:51:24;9.10;99.90
21047;DHT22;10682;50.874;3.656;2022-11-23T00:53:56;9.10;99.90
21047;DHT22;10682;50.874;3.656;2022-11-23T00:56:23;9.10;99.90
21047;DHT22;10682;50.874;3.656;2022-11-23T00:58:52;9.10;99.90
21047;DHT22;10682;50.874;3.656;2022-11-23T01:01:25;9.10;99.90
21047;DHT22;10682;50.874;3.656;2022-11-23T01:04:00;9.10;99.90
21047;DHT22;10682;50.874;3.656;2022-11-23T01:06:37;9.10;99.90
21047;DHT22;10682;50.874;3.656;2022-11-23T01:09:14;9.10;99.90
21047;DHT22;10682;50.874;3.656;2022-11-23T01:11:47;9.20;99.90
21047;DHT22;10682;50.874;3.656;2022-11-23T01:14:14;9.20;99.90
21047;DHT22;10682;50.874;3.656;2022-11-23T01:16:41;9.20;99.90
21047;DHT22;10682;50.874;3.656;2022-11-23T01:19:12;9.20;99.90
21047;DHT22;10682;50.874;3.656;2022-11-23T01:21:41;9.20;99.90
21047;DHT22;10682;50.874;3.656;2022-11-23T01:24:12;9.20;99.90
21047;DHT22;10682;50.874;3.656;2022-11-23T01:26:41;9.20;99.90
21047;DHT22;10682;50.874;3.656;2022-11-23T01:29:10;9.20;99.90
21047;DHT22;10682;50.874;3.656;2022-11-23T01:31:38;9.20;99.90
21047;DHT22;10682;50.874;3.656;2022-11-23T01:34:13;9.20;99.90
21047;DHT22;10682;50.874;3.656;2022-11-23T01:36:41;9.10;99.90
21047;DHT22;10682;50.874;3.656;2022-11-23T01:39:10;9.10;99.90
21047;DHT22;10682;50.874;3.656;2022-11-23T01:41:40;9.10;99.90
21047;DHT22;10682;50.874;3.656;2022-11-23T01:47:01;9.10;99.90
21047;DHT22;10682;50.874;3.656;2022-11-23T01:49:39;9.10;99.90
21047;DHT22;10682;50.874;3.656;2022-11-23T01:52:15;9.10;99.90
21047;DHT22;10682;50.874;3.656;2022-11-23T01:54:49;9.00;99.90
21047;DHT22;10682;50.874;3.656;2022-11-23T01:57:39;9.00;99.90
21047;DHT22;10682;50.874;3.656;2022-11-23T02:00:08;8.90;99.90
21047;DHT22;10682;50.874;3.656;2022-11-23T02:02:37;8.90;99.90
21047;DHT22;10682;50.874;3.656;2022-11-23T02:05:07;8.80;99.90
21047;DHT22;10682;50.874;3.656;2022-11-23T02:07:34;8.70;99.90
21047;DHT22;10682;50.874;3.656;2022-11-23T02:10:02;8.60;99.90
21047;DHT22;10682;50.874;3.656;2022-11-23T02:12:29;8.50;99.90
21047;DHT22;10682;50.874;3.656;2022-11-23T02:14:56;8.50;99.90
21047;DHT22;10682;50.874;3.656;2022-11-23T02:17:23;8.50;99.90
21047;DHT22;10682;50.874;3.656;2022-11-23T02:22:33;8.40;99.90
21047;DHT22;10682;50.874;3.656;2022-11-23T02:25:07;8.40;99.90
21047;DHT22;10682;50.874;3.656;2022-11-23T02:27:39;8.30;99.90
21047;DHT22;10682;50.874;3.656;2022-11-23T02:30:12;8.40;99.90
21047;DHT22;10682;50.874;3.656;2022-11-23T02:32:41;8.40;99.90
21047;DHT22;10682;50.874;3.656;2022-11-23T02:35:10;8.30;99.90
21047;DHT22;10682;50.874;3.656;2022-11-23T02:37:38;8.30;99.90
21047;DHT22;10682;50.874;3.656;2022-11-23T02:43:10;8.40;99.90
21047;DHT22;10682;50.874;3.656;2022-11-23T02:45:45;8.40;99.90
21047;DHT22;10682;50.874;3.656;2022-11-23T02:48:16;8.40;99.90
21047;DHT22;10682;50.874;3.656;2022-11-23T02:50:44;8.40;99.90
21047;DHT22;10682;50.874;3.656;2022-11-23T02:53:12;8.40;99.90
21047;DHT22;10682;50.874;3.656;2022-11-23T02:55:39;8.50;99.90
21047;DHT22;10682;50.874;3.656;2022-11-23T02:58:06;8.40;99.90
21047;DHT22;10682;50.874;3.656;2022-11-23T03:00:34;8.50;99.90
21047;DHT22;10682;50.874;3.656;2022-11-23T03:03:02;8.50;99.90
21047;DHT22;10682;50.874;3.656;2022-11-23T03:05:29;8.40;99.90
21047;DHT22;10682;50.874;3.656;2022-11-23T03:07:57;8.40;99.90
21047;DHT22;10682;50.874;3.656;2022-11-23T03:10:24;8.40;99.90
21047;DHT22;10682;50.874;3.656;2022-11-23T03:12:53;8.30;99.90
21047;DHT22;10682;50.874;3.656;2022-11-23T03:15:22;8.30;99.90
21047;DHT22;10682;50.874;3.656;2022-11-23T03:17:52;8.40;99.90
21047;DHT22;10682;50.874;3.656;2022-11-23T03:20:19;8.30;99.90
21047;DHT22;10682;50.874;3.656;2022-11-23T03:22:46;8.30;99.90
21047;DHT22;10682;50.874;3.656;2022-11-23T03:25:13;8.30;99.90
21047;DHT22;10682;50.874;3.656;2022-11-23T03:27:40;8.20;99.90
21047;DHT22;10682;50.874;3.656;2022-11-23T03:30:08;8.20;99.90
21047;DHT22;10682;50.874;3.656;2022-11-23T03:32:36;8.20;99.90
21047;DHT22;10682;50.874;3.656;2022-11-23T03:35:04;8.20;99.90
21047;DHT22;10682;50.874;3.656;2022-11-23T03:37:31;8.10;99.90
21047;DHT22;10682;50.874;3.656;2022-11-23T03:39:58;8.20;99.90
21047;DHT22;10682;50.874;3.656;2022-11-23T03:42:25;8.20;99.90
21047;DHT22;10682;50.874;3.656;2022-11-23T03:44:52;8.30;99.90
21047;DHT22;10682;50.874;3.656;2022-11-23T03:47:19;8.30;99.90
21047;DHT22;10682;50.874;3.656;2022-11-23T03:49:46;8.20;99.90
21047;DHT22;10682;50.874;3.656;2022-11-23T03:52:13;8.30;99.90
21047;DHT22;10682;50.874;3.656;2022-11-23T03:54:40;8.20;99.90
21047;DHT22;10682;50.874;3.656;2022-11-23T03:57:07;8.30;99.90
21047;DHT22;10682;50.874;3.656;2022-11-23T03:59:34;8.30;99.90
21047;DHT22;10682;50.874;3.656;2022-11-23T04:02:01;8.30;99.90
21047;DHT22;10682;50.874;3.656;2022-11-23T04:04:28;8.30;99.90
21047;DHT22;10682;50.874;3.656;2022-11-23T04:06:55;8.30;99.90
21047;DHT22;10682;50.874;3.656;2022-11-23T04:09:22;8.30;99.90
21047;DHT22;10682;50.874;3.656;2022-11-23T04:11:49;8.30;99.90
21047;DHT22;10682;50.874;3.656;2022-11-23T04:14:16;8.30;99.90
21047;DHT22;10682;50.874;3.656;2022-11-23T04:16:43;8.30;99.90
21047;DHT22;10682;50.874;3.656;2022-11-23T04:19:10;8.30;99.90
21047;DHT22;10682;50.874;3.656;2022-11-23T04:21:37;8.40;99.90
21047;DHT22;10682;50.874;3.656;2022-11-23T04:24:04;8.40;99.90
21047;DHT22;10682;50.874;3.656;2022-11-23T04:26:31;8.50;99.90
21047;DHT22;10682;50.874;3.656;2022-11-23T04:28:59;8.40;99.90
21047;DHT22;10682;50.874;3.656;2022-11-23T04:31:25;8.50;99.90
21047;DHT22;10682;50.874;3.656;2022-11-23T04:33:54;8.50;99.90
21047;DHT22;10682;50.874;3.656;2022-11-23T04:36:22;8.50;99.90
21047;DHT22;10682;50.874;3.656;2022-11-23T04:38:49;8.50;99.90
21047;DHT22;10682;50.874;3.656;2022-11-23T04:41:16;8.40;99.90
21047;DHT22;10682;50.874;3.656;2022-11-23T04:43:46;8.30;99.90
21047;DHT22;10682;50.874;3.656;2022-11-23T04:46:13;8.30;99.90
21047;DHT22;10682;50.874;3.656;2022-11-23T04:48:40;8.30;99.90
21047;DHT22;10682;50.874;3.656;2022-11-23T04:51:07;8.20;99.90
21047;DHT22;10682;50.874;3.656;2022-11-23T04:53:35;8.20;99.90
21047;DHT22;10682;50.874;3.656;2022-11-23T04:56:02;8.20;99.90
21047;DHT22;10682;50.874;3.656;2022-11-23T04:58:29;8.20;99.90
21047;DHT22;10682;50.874;3.656;2022-11-23T05:01:00;8.20;99.90
21047;DHT22;10682;50.874;3.656;2022-11-23T05:03:27;8.20;99.90
21047;DHT22;10682;50.874;3.656;2022-11-23T05:05:57;8.10;99.90
21047;DHT22;10682;50.874;3.656;2022-11-23T05:08:24;8.00;99.90
21047;DHT22;10682;50.874;3.656;2022-11-23T05:10:51;8.00;99.90
21047;DHT22;10682;50.874;3.656;2022-11-23T05:13:18;8.00;99.90
21047;DHT22;10682;50.874;3.656;2022-11-23T05:15:45;7.90;99.90
21047;DHT22;10682;50.874;3.656;2022-11-23T05:18:12;7.90;99.90
21047;DHT22;10682;50.874;3.656;2022-11-23T05:20:40;7.80;99.90
21047;DHT22;10682;50.874;3.656;2022-11-23T05:23:08;7.80;99.90
21047;DHT22;10682;50.874;3.656;2022-11-23T05:25:35;7.70;99.90
21047;DHT22;10682;50.874;3.656;2022-11-23T05:28:02;7.70;99.90
21047;DHT22;10682;50.874;3.656;2022-11-23T05:30:50;7.60;99.90
21047;DHT22;10682;50.874;3.656;2022-11-23T05:33:17;7.60;99.90
21047;DHT22;10682;50.874;3.656;2022-11-23T05:35:44;7.50;99.90
21047;DHT22;10682;50.874;3.656;2022-11-23T05:38:10;7.50;99.90
21047;DHT22;10682;50.874;3.656;2022-11-23T05:40:38;7.40;99.90
21047;DHT22;10682;50.874;3.656;2022-11-23T05:43:05;7.40;99.90
21047;DHT22;10682;50.874;3.656;2022-11-23T05:45:32;7.30;99.90
21047;DHT22;10682;50.874;3.656;2022-11-23T05:47:58;7.30;99.90
21047;DHT22;10682;50.874;3.656;2022-11-23T05:50:26;7.20;99.90
21047;DHT22;10682;50.874;3.656;2022-11-23T05:52:56;7.20;99.90
21047;DHT22;10682;50.874;3.656;2022-11-23T05:55:24;7.10;99.90
21047;DHT22;10682;50.874;3.656;2022-11-23T05:57:51;7.10;99.90
21047;DHT22;10682;50.874;3.656;2022-11-23T06:00:19;7.00;99.90
21047;DHT22;10682;50.874;3.656;2022-11-23T06:02:46;7.00;99.90
21047;DHT22;10682;50.874;3.656;2022-11-23T06:05:13;7.00;99.90
21047;DHT22;10682;50.874;3.656;2022-11-23T06:07:40;6.90;99.90
21047;DHT22;10682;50.874;3.656;2022-11-23T06:10:08;6.90;99.90
21047;DHT22;10682;50.874;3.656;2022-11-23T06:12:36;6.80;99.90
21047;DHT22;10682;50.874;3.656;2022-11-23T06:15:04;6.80;99.90
21047;DHT22;10682;50.874;3.656;2022-11-23T06:17:31;6.80;99.90
21047;DHT22;10682;50.874;3.656;2022-11-23T06:19:58;6.80;99.90
21047;DHT22;10682;50.874;3.656;2022-11-23T06:22:25;6.80;99.90
21047;DHT22;10682;50.874;3.656;2022-11-23T06:24:52;6.80;99.90
21047;DHT22;10682;50.874;3.656;2022-11-23T06:27:19;6.70;99.90
21047;DHT22;10682;50.874;3.656;2022-11-23T06:29:46;6.70;99.90
21047;DHT22;10682;50.874;3.656;2022-11-23T06:32:14;6.70;99.90
21047;DHT22;10682;50.874;3.656;2022-11-23T06:34:41;6.70;99.90
21047;DHT22;10682;50.874;3.656;2022-11-23T06:37:08;6.60;99.90
21047;DHT22;10682;50.874;3.656;2022-11-23T06:39:35;6.60;99.90
21047;DHT22;10682;50.874;3.656;2022-11-23T06:42:02;6.60;99.90
21047;DHT22;10682;50.874;3.656;2022-11-23T06:44:49;6.60;99.90
21047;DHT22;10682;50.874;3.656;2022-11-23T06:47:16;6.60;99.90
21047;DHT22;10682;50.874;3.656;2022-11-23T06:49:50;6.50;99.90
21047;DHT22;10682;50.874;3.656;2022-11-23T06:52:16;6.50;99.90
21047;DHT22;10682;50.874;3.656;2022-11-23T06:54:43;6.50;99.90
21047;DHT22;10682;50.874;3.656;2022-11-23T06:57:10;6.40;99.90
21047;DHT22;10682;50.874;3.656;2022-11-23T06:59:37;6.40;99.90
21047;DHT22;10682;50.874;3.656;2022-11-23T07:02:11;6.40;99.90
21047;DHT22;10682;50.874;3.656;2022-11-23T07:04:38;6.40;99.90
21047;DHT22;10682;50.874;3.656;2022-11-23T07:07:08;6.40;99.90
21047;DHT22;10682;50.874;3.656;2022-11-23T07:09:36;6.40;99.90
21047;DHT22;10682;50.874;3.656;2022-11-23T07:12:03;6.40;99.90
21047;DHT22;10682;50.874;3.656;2022-11-23T07:14:30;6.30;99.90
21047;DHT22;10682;50.874;3.656;2022-11-23T07:16:57;6.30;99.90
21047;DHT22;10682;50.874;3.656;2022-11-23T07:19:24;6.30;99.90
21047;DHT22;10682;50.874;3.656;2022-11-23T07:21:51;6.20;99.90
21047;DHT22;10682;50.874;3.656;2022-11-23T07:24:18;6.20;99.90
21047;DHT22;10682;50.874;3.656;2022-11-23T07:26:45;6.30;99.90
21047;DHT22;10682;50.874;3.656;2022-11-23T07:29:12;6.30;99.90
21047;DHT22;10682;50.874;3.656;2022-11-23T07:31:39;6.30;99.90
21047;DHT22;10682;50.874;3.656;2022-11-23T07:34:06;6.30;99.90
21047;DHT22;10682;50.874;3.656;2022-11-23T07:36:34;6.40;99.90
21047;DHT22;10682;50.874;3.656;2022-11-23T07:39:02;6.40;99.90
21047;DHT22;10682;50.874;3.656;2022-11-23T07:41:29;6.50;99.90
21047;DHT22;10682;50.874;3.656;2022-11-23T07:43:56;6.50;99.90
21047;DHT22;10682;50.874;3.656;2022-11-23T07:46:23;6.50;99.90
21047;DHT22;10682;50.874;3.656;2022-11-23T07:48:50;6.60;99.90
21047;DHT22;10682;50.874;3.656;2022-11-23T07:51:19;6.60;99.90
21047;DHT22;10682;50.874;3.656;2022-11-23T07:53:46;6.70;99.90
21047;DHT22;10682;50.874;3.656;2022-11-23T07:56:13;6.70;99.90
21047;DHT22;10682;50.874;3.656;2022-11-23T07:58:40;6.80;99.90
21047;DHT22;10682;50.874;3.656;2022-11-23T08:01:07;6.80;99.90
21047;DHT22;10682;50.874;3.656;2022-11-23T08:03:34;6.80;99.90
21047;DHT22;10682;50.874;3.656;2022-11-23T08:06:01;6.90;99.90
21047;DHT22;10682;50.874;3.656;2022-11-23T08:08:28;7.00;99.90
21047;DHT22;10682;50.874;3.656;2022-11-23T08:10:56;7.10;99.90
21047;DHT22;10682;50.874;3.656;2022-11-23T08:13:22;7.20;99.90
21047;DHT22;10682;50.874;3.656;2022-11-23T08:15:49;7.20;99.90
21047;DHT22;10682;50.874;3.656;2022-11-23T08:18:22;7.20;99.90
21047;DHT22;10682;50.874;3.656;2022-11-23T08:20:49;7.30;99.90
21047;DHT22;10682;50.874;3.656;2022-11-23T08:23:16;7.40;99.90
21047;DHT22;10682;50.874;3.656;2022-11-23T08:25:43;7.40;99.90
21047;DHT22;10682;50.874;3.656;2022-11-23T08:28:11;7.40;99.90
21047;DHT22;10682;50.874;3.656;2022-11-23T08:30:38;7.50;99.90
21047;DHT22;10682;50.874;3.656;2022-11-23T08:33:06;7.50;99.90
21047;DHT22;10682;50.874;3.656;2022-11-23T08:35:38;7.50;99.90
21047;DHT22;10682;50.874;3.656;2022-11-23T08:38:07;7.60;99.90
21047;DHT22;10682;50.874;3.656;2022-11-23T08:40:35;7.60;99.90
21047;DHT22;10682;50.874;3.656;2022-11-23T08:43:04;7.60;99.90
21047;DHT22;10682;50.874;3.656;2022-11-23T08:45:31;7.60;99.90
21047;DHT22;10682;50.874;3.656;2022-11-23T08:47:59;7.70;99.90
21047;DHT22;10682;50.874;3.656;2022-11-23T08:50:27;7.70;99.90
21047;DHT22;10682;50.874;3.656;2022-11-23T08:52:58;7.80;99.90
21047;DHT22;10682;50.874;3.656;2022-11-23T08:55:26;7.90;99.90
21047;DHT22;10682;50.874;3.656;2022-11-23T08:57:58;7.90;99.90
21047;DHT22;10682;50.874;3.656;2022-11-23T09:00:25;8.00;99.90
21047;DHT22;10682;50.874;3.656;2022-11-23T09:02:53;8.10;99.90
21047;DHT22;10682;50.874;3.656;2022-11-23T09:05:20;8.20;99.90
21047;DHT22;10682;50.874;3.656;2022-11-23T09:07:47;8.30;99.90
21047;DHT22;10682;50.874;3.656;2022-11-23T09:10:14;8.30;99.90
21047;DHT22;10682;50.874;3.656;2022-11-23T09:12:48;8.40;99.90
21047;DHT22;10682;50.874;3.656;2022-11-23T09:15:15;8.40;99.90
21047;DHT22;10682;50.874;3.656;2022-11-23T09:17:43;8.40;99.90
21047;DHT22;10682;50.874;3.656;2022-11-23T09:20:11;8.50;99.90
21047;DHT22;10682;50.874;3.656;2022-11-23T09:22:38;8.50;99.90
21047;DHT22;10682;50.874;3.656;2022-11-23T09:25:05;8.60;99.90
21047;DHT22;10682;50.874;3.656;2022-11-23T09:27:33;8.60;99.90
21047;DHT22;10682;50.874;3.656;2022-11-23T09:30:00;8.70;99.90
21047;DHT22;10682;50.874;3.656;2022-11-23T09:32:27;8.80;99.90
21047;DHT22;10682;50.874;3.656;2022-11-23T09:34:54;8.70;99.90
21047;DHT22;10682;50.874;3.656;2022-11-23T09:37:21;8.70;99.90
21047;DHT22;10682;50.874;3.656;2022-11-23T09:39:48;8.70;99.90
21047;DHT22;10682;50.874;3.656;2022-11-23T09:45:35;8.80;99.90
21047;DHT22;10682;50.874;3.656;2022-11-23T09:48:21;8.80;99.90
21047;DHT22;10682;50.874;3.656;2022-11-23T09:51:11;8.80;99.90
21047;DHT22;10682;50.874;3.656;2022-11-23T09:53:55;8.80;99.90
21047;DHT22;10682;50.874;3.656;2022-11-23T09:56:33;8.90;99.90
21047;DHT22;10682;50.874;3.656;2022-11-23T09:59:11;8.90;99.90
21047;DHT22;10682;50.874;3.656;2022-11-23T10:01:49;8.90;99.90
21047;DHT22;10682;50.874;3.656;2022-11-23T10:04:18;8.90;99.90
21047;DHT22;10682;50.874;3.656;2022-11-23T10:06:53;8.80;99.90
21047;DHT22;10682;50.874;3.656;2022-11-23T10:09:47;8.80;99.90
21047;DHT22;10682;50.874;3.656;2022-11-23T10:12:38;8.80;99.90
21047;DHT22;10682;50.874;3.656;2022-11-23T10:15:37;8.90;99.90
21047;DHT22;10682;50.874;3.656;2022-11-23T10:23:54;8.70;99.90
21047;DHT22;10682;50.874;3.656;2022-11-23T10:26:31;8.70;99.90
21047;DHT22;10682;50.874;3.656;2022-11-23T10:29:31;8.70;99.90
21047;DHT22;10682;50.874;3.656;2022-11-23T10:32:04;8.70;99.90
21047;DHT22;10682;50.874;3.656;2022-11-23T10:37:41;8.60;99.90
21047;DHT22;10682;50.874;3.656;2022-11-23T10:40:23;8.70;99.90
21047;DHT22;10682;50.874;3.656;2022-11-23T10:42:58;8.70;99.90
21047;DHT22;10682;50.874;3.656;2022-11-23T10:45:28;8.80;99.90
21047;DHT22;10682;50.874;3.656;2022-11-23T10:47:57;9.00;99.90
21047;DHT22;10682;50.874;3.656;2022-11-23T10:50:33;9.10;99.90
21047;DHT22;10682;50.874;3.656;2022-11-23T10:53:21;9.10;99.90
21047;DHT22;10682;50.874;3.656;2022-11-23T10:55:53;9.20;99.90
21047;DHT22;10682;50.874;3.656;2022-11-23T10:58:33;9.20;99.90
21047;DHT22;10682;50.874;3.656;2022-11-23T11:01:18;9.20;99.90
21047;DHT22;10682;50.874;3.656;2022-11-23T11:03:52;9.20;99.90
21047;DHT22;10682;50.874;3.656;2022-11-23T11:06:31;9.20;99.90
21047;DHT22;10682;50.874;3.656;2022-11-23T11:09:01;9.20;99.90
21047;DHT22;10682;50.874;3.656;2022-11-23T11:11:38;9.10;99.90
21047;DHT22;10682;50.874;3.656;2022-11-23T11:16:54;9.20;99.90
21047;DHT22;10682;50.874;3.656;2022-11-23T11:19:27;9.30;99.90
21047;DHT22;10682;50.874;3.656;2022-11-23T11:21:57;9.30;99.90
21047;DHT22;10682;50.874;3.656;2022-11-23T11:24:44;9.20;99.90
21047;DHT22;10682;50.874;3.656;2022-11-23T11:29:48;9.10;99.90
21047;DHT22;10682;50.874;3.656;2022-11-23T11:32:30;9.10;99.90
21047;DHT22;10682;50.874;3.656;2022-11-23T11:35:28;9.00;99.90
21047;DHT22;10682;50.874;3.656;2022-11-23T11:41:09;8.90;99.90
21047;DHT22;10682;50.874;3.656;2022-11-23T11:43:48;8.90;99.90
21047;DHT22;10682;50.874;3.656;2022-11-23T11:46:22;8.90;99.90
21047;DHT22;10682;50.874;3.656;2022-11-23T11:49:06;8.80;99.90
21047;DHT22;10682;50.874;3.656;2022-11-23T11:52:04;8.80;99.90
21047;DHT22;10682;50.874;3.656;2022-11-23T11:57:26;8.70;99.90
21047;DHT22;10682;50.874;3.656;2022-11-23T12:00:00;8.70;99.90
21047;DHT22;10682;50.874;3.656;2022-11-23T12:02:38;8.70;99.90
21047;DHT22;10682;50.874;3.656;2022-11-23T12:05:19;8.70;99.90
21047;DHT22;10682;50.874;3.656;2022-11-23T12:08:12;8.70;99.90
21047;DHT22;10682;50.874;3.656;2022-11-23T12:13:22;8.60;99.90
21047;DHT22;10682;50.874;3.656;2022-11-23T12:19:24;8.60;99.90
21047;DHT22;10682;50.874;3.656;2022-11-23T12:22:21;8.70;99.90
21047;DHT22;10682;50.874;3.656;2022-11-23T12:25:35;8.70;99.90
21047;DHT22;10682;50.874;3.656;2022-11-23T12:28:25;8.70;99.90
21047;DHT22;10682;50.874;3.656;2022-11-23T12:40:28;8.80;99.90
21047;DHT22;10682;50.874;3.656;2022-11-23T12:43:12;8.80;99.90
21047;DHT22;10682;50.874;3.656;2022-11-23T12:51:43;8.80;99.90
21047;DHT22;10682;50.874;3.656;2022-11-23T12:59:58;8.80;99.90
21047;DHT22;10682;50.874;3.656;2022-11-23T13:06:05;8.70;99.90
21047;DHT22;10682;50.874;3.656;2022-11-23T13:23:17;8.50;99.90
21047;DHT22;10682;50.874;3.656;2022-11-23T13:28:41;8.50;99.90
21047;DHT22;10682;50.874;3.656;2022-11-23T13:33:43;8.50;99.90
21047;DHT22;10682;50.874;3.656;2022-11-23T13:42:25;8.60;99.90
21047;DHT22;10682;50.874;3.656;2022-11-23T13:45:12;8.60;99.90
21047;DHT22;10682;50.874;3.656;2022-11-23T13:48:13;8.60;99.90
21047;DHT22;10682;50.874;3.656;2022-11-23T13:51:04;8.60;99.90
21047;DHT22;10682;50.874;3.656;2022-11-23T13:53:37;8.60;99.90
21047;DHT22;10682;50.874;3.656;2022-11-23T13:57:17;8.60;99.90
21047;DHT22;10682;50.874;3.656;2022-11-23T13:59:29;8.70;99.90
21047;DHT22;10682;50.874;3.656;2022-11-23T14:04:38;8.60;99.90
21047;DHT22;10682;50.874;3.656;2022-11-23T14:07:39;8.70;99.90
21047;DHT22;10682;50.874;3.656;2022-11-23T14:10:21;8.70;99.90
21047;DHT22;10682;50.874;3.656;2022-11-23T14:13:08;8.60;99.90
21047;DHT22;10682;50.874;3.656;2022-11-23T14:15:46;8.70;99.90
21047;DHT22;10682;50.874;3.656;2022-11-23T14:24:58;9.10;99.90
21047;DHT22;10682;50.874;3.656;2022-11-23T14:31:07;9.30;99.90
21047;DHT22;10682;50.874;3.656;2022-11-23T14:34:03;9.50;99.90
21047;DHT22;10682;50.874;3.656;2022-11-23T14:39:26;9.60;99.90
21047;DHT22;10682;50.874;3.656;2022-11-23T14:42:20;9.60;99.90
21047;DHT22;10682;50.874;3.656;2022-11-23T14:44:49;9.60;99.90
21047;DHT22;10682;50.874;3.656;2022-11-23T14:47:29;9.60;99.90
21047;DHT22;10682;50.874;3.656;2022-11-23T14:49:56;9.60;99.90
21047;DHT22;10682;50.874;3.656;2022-11-23T14:52:27;9.60;99.90
21047;DHT22;10682;50.874;3.656;2022-11-23T14:54:57;9.60;99.90
21047;DHT22;10682;50.874;3.656;2022-11-23T14:57:38;9.60;99.90
21047;DHT22;10682;50.874;3.656;2022-11-23T15:00:24;9.50;99.90
21047;DHT22;10682;50.874;3.656;2022-11-23T15:03:18;9.50;99.90
21047;DHT22;10682;50.874;3.656;2022-11-23T15:06:15;9.40;99.90
21047;DHT22;10682;50.874;3.656;2022-11-23T15:11:26;9.30;99.90
21047;DHT22;10682;50.874;3.656;2022-11-23T15:13:54;9.30;99.90
21047;DHT22;10682;50.874;3.656;2022-11-23T15:16:24;9.30;99.90
21047;DHT22;10682;50.874;3.656;2022-11-23T15:18:51;9.20;99.90
21047;DHT22;10682;50.874;3.656;2022-11-23T15:21:20;9.20;99.90
21047;DHT22;10682;50.874;3.656;2022-11-23T15:23:55;9.10;99.90
21047;DHT22;10682;50.874;3.656;2022-11-23T15:26:27;9.10;99.90
21047;DHT22;10682;50.874;3.656;2022-11-23T15:29:35;9.10;99.90
21047;DHT22;10682;50.874;3.656;2022-11-23T15:32:23;9.10;99.90
21047;DHT22;10682;50.874;3.656;2022-11-23T15:35:05;9.00;99.90
21047;DHT22;10682;50.874;3.656;2022-11-23T15:37:52;9.00;99.90
21047;DHT22;10682;50.874;3.656;2022-11-23T15:40:19;9.00;99.90
21047;DHT22;10682;50.874;3.656;2022-11-23T15:42:49;9.00;99.90
21047;DHT22;10682;50.874;3.656;2022-11-23T15:48:18;8.90;99.90
21047;DHT22;10682;50.874;3.656;2022-11-23T15:51:01;8.80;99.90
21047;DHT22;10682;50.874;3.656;2022-11-23T15:53:46;8.80;99.90
21047;DHT22;10682;50.874;3.656;2022-11-23T16:02:19;8.60;99.90
21047;DHT22;10682;50.874;3.656;2022-11-23T16:04:47;8.60;99.90
21047;DHT22;10682;50.874;3.656;2022-11-23T16:07:20;8.60;99.90
21047;DHT22;10682;50.874;3.656;2022-11-23T16:10:02;8.60;99.90
21047;DHT22;10682;50.874;3.656;2022-11-23T16:12:34;8.60;99.90
21047;DHT22;10682;50.874;3.656;2022-11-23T16:18:17;8.60;99.90
21047;DHT22;10682;50.874;3.656;2022-11-23T16:20:51;8.60;99.90
21047;DHT22;10682;50.874;3.656;2022-11-23T16:23:23;8.60;99.90
21047;DHT22;10682;50.874;3.656;2022-11-23T16:25:54;8.60;99.90
21047;DHT22;10682;50.874;3.656;2022-11-23T16:28:30;8.70;99.90
21047;DHT22;10682;50.874;3.656;2022-11-23T16:31:03;8.70;99.90
21047;DHT22;10682;50.874;3.656;2022-11-23T16:33:30;8.80;99.90
21047;DHT22;10682;50.874;3.656;2022-11-23T16:35:57;8.80;99.90
21047;DHT22;10682;50.874;3.656;2022-11-23T16:38:24;8.90;99.90
21047;DHT22;10682;50.874;3.656;2022-11-23T16:40:51;8.90;99.90
21047;DHT22;10682;50.874;3.656;2022-11-23T16:43:18;9.00;99.90
21047;DHT22;10682;50.874;3.656;2022-11-23T16:45:48;9.00;99.90
21047;DHT22;10682;50.874;3.656;2022-11-23T16:50:54;9.00;99.90
21047;DHT22;10682;50.874;3.656;2022-11-23T16:53:22;9.00;99.90
21047;DHT22;10682;50.874;3.656;2022-11-23T16:55:53;8.90;99.90
21047;DHT22;10682;50.874;3.656;2022-11-23T16:58:21;8.90;99.90
21047;DHT22;10682;50.874;3.656;2022-11-23T17:00:48;8.90;99.90
21047;DHT22;10682;50.874;3.656;2022-11-23T17:03:18;8.90;99.90
21047;DHT22;10682;50.874;3.656;2022-11-23T17:05:46;8.80;99.90
21047;DHT22;10682;50.874;3.656;2022-11-23T17:08:13;8.90;99.90
21047;DHT22;10682;50.874;3.656;2022-11-23T17:10:49;8.80;99.90
21047;DHT22;10682;50.874;3.656;2022-11-23T17:13:20;8.80;99.90
21047;DHT22;10682;50.874;3.656;2022-11-23T17:15:49;8.80;99.90
21047;DHT22;10682;50.874;3.656;2022-11-23T17:18:17;8.80;99.90
21047;DHT22;10682;50.874;3.656;2022-11-23T17:20:44;8.80;99.90
21047;DHT22;10682;50.874;3.656;2022-11-23T17:23:11;8.70;99.90
21047;DHT22;10682;50.874;3.656;2022-11-23T17:25:38;8.70;99.90
21047;DHT22;10682;50.874;3.656;2022-11-23T17:28:13;8.80;99.90
21047;DHT22;10682;50.874;3.656;2022-11-23T17:30:42;8.80;99.90
21047;DHT22;10682;50.874;3.656;2022-11-23T17:33:10;8.80;99.90
21047;DHT22;10682;50.874;3.656;2022-11-23T17:35:38;8.90;99.90
21047;DHT22;10682;50.874;3.656;2022-11-23T17:38:08;8.90;99.90
21047;DHT22;10682;50.874;3.656;2022-11-23T17:40:38;9.00;99.90
21047;DHT22;10682;50.874;3.656;2022-11-23T17:43:05;9.00;99.90
21047;DHT22;10682;50.874;3.656;2022-11-23T17:45:32;9.00;99.90
21047;DHT22;10682;50.874;3.656;2022-11-23T17:47:59;9.00;99.90
21047;DHT22;10682;50.874;3.656;2022-11-23T17:50:29;9.00;99.90
21047;DHT22;10682;50.874;3.656;2022-11-23T17:52:56;9.00;99.90
21047;DHT22;10682;50.874;3.656;2022-11-23T17:55:23;9.00;99.90
21047;DHT22;10682;50.874;3.656;2022-11-23T17:57:50;9.00;99.90
21047;DHT22;10682;50.874;3.656;2022-11-23T18:00:21;9.00;99.90
21047;DHT22;10682;50.874;3.656;2022-11-23T18:02:49;9.00;99.90
21047;DHT22;10682;50.874;3.656;2022-11-23T18:05:16;9.10;99.90
21047;DHT22;10682;50.874;3.656;2022-11-23T18:07:48;9.10;99.90
21047;DHT22;10682;50.874;3.656;2022-11-23T18:10:16;9.20;99.90
21047;DHT22;10682;50.874;3.656;2022-11-23T18:12:44;9.20;99.90
21047;DHT22;10682;50.874;3.656;2022-11-23T18:15:12;9.20;99.90